createdAt,value
2023-04-01T00:00:44.177Z,63.58
2023-04-01T00:03:17.895Z,63.53
2023-04-01T00:05:49.936Z,63.50
2023-04-01T00:08:21.490Z,63.58
2023-04-01T00:10:53.456Z,63.59
2023-04-01T00:13:26.668Z,63.65
2023-04-01T00:15:59.951Z,63.70
2023-04-01T00:18:32.501Z,63.60
2023-04-01T00:21:04.143Z,63.39
2023-04-01T00:23:36.719Z,63.28
2023-04-01T00:26:08.602Z,63.13
2023-04-01T00:28:41.409Z,63.18
2023-04-01T00:31:14.246Z,63.00
2023-04-01T00:33:45.904Z,63.00
2023-04-01T00:36:20.071Z,62.97
2023-04-01T00:38:52.782Z,62.53
2023-04-01T00:41:25.205Z,62.32
2023-04-01T00:44:10.387Z,62.14
2023-04-01T00:46:42.401Z,61.95
2023-04-01T00:49:15.023Z,61.75
2023-04-01T00:51:49.067Z,62.03
2023-04-01T00:54:23.272Z,62.14
2023-04-01T00:56:59.843Z,62.16
2023-04-01T00:59:35.889Z,62.15
2023-04-01T01:02:11.160Z,61.96
2023-04-01T01:04:43.476Z,62.04
2023-04-01T01:07:29.277Z,62.03
2023-04-01T01:10:10.975Z,62.08
2023-04-01T01:12:47.268Z,62.03
2023-04-01T01:15:27.719Z,62.01
2023-04-01T01:18:05.424Z,61.93
2023-04-01T01:20:51.188Z,61.89
2023-04-01T01:23:55.665Z,61.83
2023-04-01T01:26:52.460Z,62.03
2023-04-01T01:29:44.715Z,62.15
2023-04-01T01:32:28.913Z,62.43
2023-04-01T01:35:07.293Z,62.57
2023-04-01T01:37:40.200Z,62.66
2023-04-01T01:40:15.679Z,62.72
2023-04-01T01:42:52.488Z,62.46
2023-04-01T01:45:27.783Z,62.22
2023-04-01T01:48:01.756Z,61.99
2023-04-01T01:50:36.364Z,61.82
2023-04-01T01:53:10.972Z,61.71
2023-04-01T01:55:45.223Z,61.57
2023-04-01T01:58:21.367Z,61.29
2023-04-01T02:00:58.286Z,60.93
2023-04-01T02:03:33.160Z,60.87
2023-04-01T02:06:08.753Z,60.76
2023-04-01T02:08:46.212Z,60.75
2023-04-01T02:11:22.737Z,60.81
2023-04-01T02:13:59.347Z,60.81
2023-04-01T02:16:37.563Z,60.74
2023-04-01T02:19:11.725Z,60.58
2023-04-01T02:21:45.776Z,60.29
2023-04-01T02:24:18.950Z,60.21
2023-04-01T02:26:51.146Z,60.10
2023-04-01T02:29:26.455Z,60.04
2023-04-01T02:31:59.716Z,60.08
2023-04-01T02:34:32.118Z,60.03
2023-04-01T02:37:04.520Z,60.12
2023-04-01T02:39:37.472Z,60.15
2023-04-01T02:42:09.812Z,60.08
2023-04-01T02:44:41.437Z,60.02
2023-04-01T02:47:13.153Z,59.96
2023-04-01T02:49:45.566Z,59.91
2023-04-01T02:52:17.886Z,59.76
2023-04-01T02:54:49.999Z,59.80
2023-04-01T02:57:22.530Z,59.48
2023-04-01T02:59:54.758Z,59.32
2023-04-01T03:02:26.738Z,59.24
2023-04-01T03:04:58.544Z,59.11
2023-04-01T03:07:30.720Z,59.14
2023-04-01T03:10:02.234Z,59.17
2023-04-01T03:12:33.961Z,58.99
2023-04-01T03:15:10.688Z,58.75
2023-04-01T03:17:44.460Z,58.88
2023-04-01T03:20:17.784Z,58.86
2023-04-01T03:22:49.444Z,58.66
2023-04-01T03:25:22.205Z,58.74
2023-04-01T03:27:55.071Z,58.49
2023-04-01T03:30:27.606Z,58.29
2023-04-01T03:32:59.856Z,58.22
2023-04-01T03:35:32.366Z,58.07
2023-04-01T03:38:04.449Z,58.12
2023-04-01T03:40:38.579Z,57.98
2023-04-01T03:43:11.317Z,58.10
2023-04-01T03:45:49.295Z,58.04
2023-04-01T03:48:21.461Z,58.10
2023-04-01T03:50:54.220Z,57.91
2023-04-01T03:53:29.504Z,57.99
2023-04-01T03:56:05.874Z,57.86
2023-04-01T03:58:38.577Z,57.68
2023-04-01T04:01:19.981Z,57.58
2023-04-01T04:03:53.760Z,57.36
2023-04-01T04:06:28.318Z,57.50
2023-04-01T04:08:59.934Z,57.26
2023-04-01T04:11:33.499Z,57.15
2023-04-01T04:14:05.608Z,57.04
2023-04-01T04:16:38.906Z,56.77
2023-04-01T04:19:11.318Z,57.20
2023-04-01T04:21:44.668Z,57.14
2023-04-01T04:24:17.490Z,56.71
2023-04-01T04:27:11.531Z,56.48
2023-04-01T04:29:49.669Z,56.35
2023-04-01T04:32:21.624Z,55.79
2023-04-01T04:34:53.488Z,55.61
2023-04-01T04:37:27.041Z,55.94
2023-04-01T04:39:58.765Z,55.91
2023-04-01T04:42:30.644Z,55.71
2023-04-01T04:45:08.237Z,55.32
2023-04-01T04:47:40.827Z,55.54
2023-04-01T04:50:14.103Z,55.31
2023-04-01T04:52:45.944Z,55.17
2023-04-01T04:55:19.031Z,55.15
2023-04-01T04:57:53.858Z,55.73
2023-04-01T05:00:25.893Z,55.57
2023-04-01T05:03:02.218Z,55.46
2023-04-01T05:05:34.372Z,55.30
2023-04-01T05:08:08.095Z,55.30
2023-04-01T05:10:40.212Z,55.49
2023-04-01T05:13:12.749Z,55.09
2023-04-01T05:15:44.551Z,55.44
2023-04-01T05:18:16.345Z,55.20
2023-04-01T05:20:52.074Z,55.19
2023-04-01T05:23:25.806Z,55.58
2023-04-01T05:25:58.169Z,55.43
2023-04-01T05:28:29.704Z,55.56
2023-04-01T05:31:02.342Z,55.87
2023-04-01T05:33:39.695Z,55.63
2023-04-01T05:36:13.686Z,55.49
2023-04-01T05:38:46.985Z,55.66
2023-04-01T05:41:19.140Z,55.41
2023-04-01T05:43:50.996Z,55.43
2023-04-01T05:46:43.242Z,55.23
2023-04-01T05:49:22.587Z,54.90
2023-04-01T05:51:54.426Z,54.58
2023-04-01T05:54:26.191Z,54.68
2023-04-01T05:56:57.886Z,54.30
2023-04-01T05:59:29.774Z,54.15
2023-04-01T06:02:01.723Z,54.14
2023-04-01T06:04:40.260Z,53.85
2023-04-01T06:07:19.079Z,53.74
2023-04-01T06:09:50.683Z,53.54
2023-04-01T06:12:41.276Z,53.58
2023-04-01T06:15:25.722Z,53.21
2023-04-01T06:18:20.828Z,52.99
2023-04-01T06:21:03.053Z,52.70
2023-04-01T06:23:49.449Z,52.67
2023-04-01T06:26:30.461Z,53.01
2023-04-01T06:29:43.643Z,53.14
2023-04-01T06:32:34.095Z,53.28
2023-04-01T06:35:25.621Z,53.42
2023-04-01T06:38:15.853Z,53.16
2023-04-01T06:41:29.462Z,53.23
2023-04-01T06:44:17.371Z,53.26
2023-04-01T06:47:21.136Z,53.61
2023-04-01T06:50:22.978Z,54.13
2023-04-01T06:53:31.118Z,54.29
2023-04-01T06:56:16.258Z,54.53
2023-04-01T06:59:18.057Z,54.92
2023-04-01T07:01:53.614Z,55.14
2023-04-01T07:04:30.825Z,55.41
2023-04-01T07:07:06.187Z,55.61
2023-04-01T07:09:46.890Z,55.90
2023-04-01T07:12:49.634Z,56.18
2023-04-01T07:15:43.459Z,56.36
2023-04-01T07:18:19.949Z,56.68
2023-04-01T07:20:54.275Z,56.80
2023-04-01T07:23:30.026Z,56.93
2023-04-01T07:26:29.060Z,56.99
2023-04-01T07:29:03.878Z,57.49
2023-04-01T07:32:17.244Z,57.60
2023-04-01T07:34:59.759Z,57.83
2023-04-01T07:37:40.852Z,57.77
2023-04-01T07:40:24.406Z,57.77
2023-04-01T07:43:20.421Z,57.79
2023-04-01T07:46:10.324Z,57.77
2023-04-01T07:48:52.234Z,57.74
2023-04-01T07:51:30.564Z,57.72
2023-04-01T07:54:10.964Z,57.62
2023-04-01T07:56:48.535Z,57.74
2023-04-01T07:59:32.305Z,57.88
2023-04-01T08:02:31.801Z,57.82
2023-04-01T08:05:14.022Z,57.93
2023-04-01T08:07:51.420Z,58.03
2023-04-01T08:10:49.461Z,58.05
2023-04-01T08:13:48.525Z,57.97
2023-04-01T08:16:48.226Z,58.30
2023-04-01T08:19:40.953Z,58.06
2023-04-01T08:22:20.240Z,58.18
2023-04-01T08:24:53.971Z,58.24
2023-04-01T08:27:34.124Z,58.30
2023-04-01T08:30:18.365Z,58.38
2023-04-01T08:32:53.207Z,59.33
2023-04-01T08:35:34.368Z,59.41
2023-04-01T08:38:13.308Z,60.12
2023-04-01T08:41:02.505Z,59.40
2023-04-01T08:44:19.192Z,59.66
2023-04-01T08:47:21.491Z,59.33
2023-04-01T08:50:22.429Z,59.18
2023-04-01T08:53:13.966Z,59.37
2023-04-01T08:56:09.049Z,59.51
2023-04-01T08:59:02.409Z,59.48
2023-04-01T09:01:52.886Z,59.61
2023-04-01T09:05:06.138Z,59.69
2023-04-01T09:07:49.054Z,59.76
2023-04-01T09:10:45.611Z,59.93
2023-04-01T09:14:12.548Z,59.39
2023-04-01T09:17:11.607Z,59.54
2023-04-01T09:20:00.237Z,59.57
2023-04-01T09:22:44.898Z,59.78
2023-04-01T09:25:47.583Z,59.83
2023-04-01T09:28:28.793Z,60.02
2023-04-01T09:31:16.240Z,59.56
2023-04-01T09:34:28.322Z,58.94
2023-04-01T09:37:22.586Z,58.51
2023-04-01T09:40:17.040Z,57.79
2023-04-01T09:43:04.233Z,57.58
2023-04-01T09:45:50.884Z,57.18
2023-04-01T09:48:47.925Z,56.84
2023-04-01T09:51:32.882Z,56.85
2023-04-01T09:54:23.293Z,56.55
2023-04-01T09:57:17.222Z,56.84
2023-04-01T10:00:28.556Z,56.74
2023-04-01T10:03:29.945Z,56.40
2023-04-01T10:06:30.378Z,56.38
2023-04-01T10:09:34.408Z,56.33
2023-04-01T10:12:36.612Z,56.11
2023-04-01T10:15:49.540Z,55.85
2023-04-01T10:18:52.738Z,55.63
2023-04-01T10:22:02.793Z,56.19
2023-04-01T10:25:26.370Z,55.91
2023-04-01T10:28:24.126Z,55.62
2023-04-01T10:31:29.969Z,55.42
2023-04-01T10:34:38.078Z,55.33
2023-04-01T10:37:23.245Z,55.43
2023-04-01T10:40:26.608Z,55.23
2023-04-01T10:43:50.895Z,55.31
2023-04-01T10:46:55.403Z,55.35
2023-04-01T10:49:57.662Z,55.23
2023-04-01T10:53:07.823Z,55.15
2023-04-01T10:56:46.512Z,54.92
2023-04-01T10:59:54.756Z,54.59
2023-04-01T11:03:31.471Z,54.93
2023-04-01T11:07:10.702Z,54.18
2023-04-01T11:10:17.223Z,54.18
2023-04-01T11:13:26.491Z,54.12
2023-04-01T11:16:24.482Z,53.79
2023-04-01T11:19:22.958Z,52.71
2023-04-01T11:22:17.769Z,52.05
2023-04-01T11:25:32.029Z,50.37
2023-04-01T11:28:43.311Z,50.06
2023-04-01T11:31:31.635Z,49.75
2023-04-01T11:34:14.577Z,50.01
2023-04-01T11:36:55.072Z,48.96
2023-04-01T11:39:36.727Z,48.08
2023-04-01T11:42:21.029Z,47.62
2023-04-01T11:45:23.341Z,47.06
2023-04-01T11:48:10.110Z,48.01
2023-04-01T11:50:55.927Z,46.68
2023-04-01T11:53:34.920Z,47.24
2023-04-01T11:56:18.534Z,47.01
2023-04-01T11:59:14.958Z,47.10
2023-04-01T12:01:58.804Z,47.88
2023-04-01T12:04:55.590Z,47.61
2023-04-01T12:07:39.492Z,47.41
2023-04-01T12:10:22.949Z,47.61
2023-04-01T12:13:04.449Z,47.16
2023-04-01T12:15:49.595Z,46.75
2023-04-01T12:18:28.522Z,48.67
2023-04-01T12:21:05.469Z,49.26
2023-04-01T12:24:09.545Z,49.40
2023-04-01T12:26:58.563Z,49.53
2023-04-01T12:29:58.629Z,49.34
2023-04-01T12:32:40.579Z,49.16
2023-04-01T12:35:27.227Z,49.98
2023-04-01T12:38:11.660Z,50.27
2023-04-01T12:40:54.819Z,50.29
2023-04-01T12:44:04.639Z,50.44
2023-04-01T12:46:44.508Z,50.62
2023-04-01T12:49:44.375Z,50.67
2023-04-01T12:52:17.749Z,50.77
2023-04-01T12:55:10.621Z,50.89
2023-04-01T12:58:04.712Z,51.01
2023-04-01T13:00:51.159Z,51.01
2023-04-01T13:03:43.525Z,50.96
2023-04-01T13:06:46.138Z,50.94
2023-04-01T13:09:31.456Z,50.93
2023-04-01T13:12:26.404Z,50.96
2023-04-01T13:15:15.225Z,51.09
2023-04-01T13:17:56.367Z,51.30
2023-04-01T13:20:38.761Z,51.58
2023-04-01T13:23:26.902Z,51.62
2023-04-01T13:26:14.601Z,51.42
2023-04-01T13:28:54.187Z,51.33
2023-04-01T13:31:39.136Z,51.30
2023-04-01T13:34:23.074Z,51.17
2023-04-01T13:37:07.456Z,51.40
2023-04-01T13:40:04.116Z,51.60
2023-04-01T13:42:42.418Z,51.51
2023-04-01T13:45:19.544Z,51.71
2023-04-01T13:48:21.339Z,51.66
2023-04-01T13:51:24.736Z,51.66
2023-04-01T13:54:17.871Z,51.81
2023-04-01T13:56:59.702Z,51.80
2023-04-01T13:59:50.952Z,51.63
2023-04-01T14:02:43.501Z,51.59
2023-04-01T14:05:42.067Z,51.68
2023-04-01T14:08:26.120Z,51.71
2023-04-01T14:11:12.916Z,51.72
2023-04-01T14:13:53.581Z,51.65
2023-04-01T14:16:49.288Z,51.73
2023-04-01T14:19:36.006Z,51.67
2023-04-01T14:22:20.601Z,51.67
2023-04-01T14:25:14.219Z,51.83
2023-04-01T14:27:57.373Z,51.92
2023-04-01T14:30:53.198Z,52.07
2023-04-01T14:33:44.899Z,52.39
2023-04-01T14:36:37.951Z,52.58
2023-04-01T14:39:26.929Z,52.69
2023-04-01T14:42:22.301Z,52.71
2023-04-01T14:45:09.451Z,52.69
2023-04-01T14:47:50.230Z,52.72
2023-04-01T14:50:24.002Z,52.66
2023-04-01T14:53:10.960Z,52.77
2023-04-01T14:55:52.196Z,52.93
2023-04-01T14:58:26.795Z,53.08
2023-04-01T15:01:15.513Z,53.19
2023-04-01T15:03:59.262Z,53.39
2023-04-01T15:06:44.648Z,53.37
2023-04-01T15:09:29.665Z,53.35
2023-04-01T15:12:15.702Z,53.57
2023-04-01T15:14:58.312Z,53.52
2023-04-01T15:17:50.449Z,53.78
2023-04-01T15:20:49.935Z,53.76
2023-04-01T15:23:34.778Z,53.98
2023-04-01T15:26:22.313Z,53.98
2023-04-01T15:29:07.324Z,54.04
2023-04-01T15:31:49.544Z,53.87
2023-04-01T15:34:35.465Z,53.66
2023-04-01T15:37:16.654Z,53.72
2023-04-01T15:39:57.794Z,53.73
2023-04-01T15:42:46.556Z,53.57
2023-04-01T15:45:36.045Z,53.57
2023-04-01T15:48:25.162Z,53.57
2023-04-01T15:51:04.099Z,53.68
2023-04-01T15:53:57.367Z,53.94
2023-04-01T15:56:58.846Z,53.98
2023-04-01T15:59:55.808Z,54.15
2023-04-01T16:02:35.674Z,54.22
2023-04-01T16:05:24.027Z,54.24
2023-04-01T16:08:11.600Z,54.27
2023-04-01T16:10:54.507Z,54.17
2023-04-01T16:13:44.081Z,54.16
2023-04-01T16:16:27.642Z,54.16
2023-04-01T16:19:14.802Z,53.81
2023-04-01T16:21:53.353Z,53.96
2023-04-01T16:24:35.164Z,54.01
2023-04-01T16:27:13.114Z,53.94
2023-04-01T16:29:52.312Z,53.66
2023-04-01T16:32:34.268Z,53.60
2023-04-01T16:35:30.787Z,53.57
2023-04-01T16:38:11.980Z,53.66
2023-04-01T16:40:49.598Z,53.61
2023-04-01T16:43:29.451Z,53.26
2023-04-01T16:46:24.983Z,52.94
2023-04-01T16:49:03.674Z,53.10
2023-04-01T16:51:48.646Z,53.13
2023-04-01T16:54:30.341Z,53.16
2023-04-01T16:57:17.894Z,53.34
2023-04-01T16:59:58.645Z,53.43
2023-04-01T17:02:33.974Z,53.40
2023-04-01T17:05:09.605Z,53.38
2023-04-01T17:07:49.366Z,53.48
2023-04-01T17:10:44.844Z,53.61
2023-04-01T17:13:30.083Z,53.82
2023-04-01T17:16:16.556Z,54.09
2023-04-01T17:18:59.507Z,54.18
2023-04-01T17:21:38.582Z,54.32
2023-04-01T17:24:25.341Z,54.56
2023-04-01T17:27:04.193Z,54.77
2023-04-01T17:29:42.588Z,54.95
2023-04-01T17:32:21.831Z,55.23
2023-04-01T17:35:04.867Z,55.45
2023-04-01T17:37:48.468Z,55.56
2023-04-01T17:40:39.873Z,55.77
2023-04-01T17:43:21.555Z,55.94
2023-04-01T17:45:58.550Z,56.19
2023-04-01T17:48:47.237Z,56.43
2023-04-01T17:51:32.705Z,56.71
2023-04-01T17:54:15.099Z,56.79
2023-04-01T17:56:58.103Z,57.00
2023-04-01T17:59:38.095Z,57.35
2023-04-01T18:02:24.651Z,57.22
2023-04-01T18:05:23.786Z,56.79
2023-04-01T18:08:24.091Z,56.37
2023-04-01T18:11:08.154Z,56.11
2023-04-01T18:13:57.736Z,55.97
2023-04-01T18:16:43.921Z,55.65
2023-04-01T18:19:23.461Z,55.22
2023-04-01T18:21:58.558Z,55.04
2023-04-01T18:24:36.203Z,54.63
2023-04-01T18:27:18.214Z,54.34
2023-04-01T18:29:53.841Z,53.74
2023-04-01T18:32:47.389Z,53.34
2023-04-01T18:35:24.855Z,53.22
2023-04-01T18:38:02.678Z,52.97
2023-04-01T18:40:37.754Z,52.80
2023-04-01T18:43:18.739Z,52.83
2023-04-01T18:45:56.756Z,52.74
2023-04-01T18:48:52.609Z,52.33
2023-04-01T18:51:29.001Z,52.11
2023-04-01T18:54:03.087Z,52.09
2023-04-01T18:56:37.221Z,52.05
2023-04-01T18:59:14.256Z,52.02
2023-04-01T19:01:53.580Z,52.09
2023-04-01T19:04:33.059Z,52.04
2023-04-01T19:07:36.178Z,52.01
2023-04-01T19:10:19.430Z,51.69
2023-04-01T19:13:13.311Z,51.55
2023-04-01T19:15:52.744Z,51.49
2023-04-01T19:18:44.222Z,51.17
2023-04-01T19:21:21.313Z,51.09
2023-04-01T19:24:26.188Z,51.04
2023-04-01T19:27:06.242Z,50.82
2023-04-01T19:29:51.442Z,50.35
2023-04-01T19:32:36.211Z,50.13
2023-04-01T19:35:20.974Z,49.96
2023-04-01T19:37:59.689Z,49.70
2023-04-01T19:40:50.270Z,49.38
2023-04-01T19:43:38.614Z,49.12
2023-04-01T19:46:21.509Z,48.81
2023-04-01T19:49:05.582Z,48.54
2023-04-01T19:51:46.310Z,48.17
2023-04-01T19:54:30.192Z,47.94
2023-04-01T19:57:14.870Z,47.95
2023-04-01T19:59:53.165Z,47.57
2023-04-01T20:02:55.088Z,47.50
2023-04-01T20:05:48.099Z,47.39
2023-04-01T20:08:28.609Z,47.21
2023-04-01T20:11:09.219Z,47.50
2023-04-01T20:13:49.060Z,47.41
2023-04-01T20:16:20.847Z,47.54
2023-04-01T20:18:58.543Z,47.34
2023-04-01T20:21:37.832Z,47.24
2023-04-01T20:24:23.942Z,47.13
2023-04-01T20:27:07.076Z,47.24
2023-04-01T20:29:49.548Z,47.07
2023-04-01T20:32:39.022Z,47.15
2023-04-01T20:35:29.672Z,46.86
2023-04-01T20:38:21.926Z,46.96
2023-04-01T20:40:55.264Z,47.11
2023-04-01T20:43:50.874Z,46.95
2023-04-01T20:46:25.937Z,47.45
2023-04-01T20:49:20.552Z,47.06
2023-04-01T20:52:04.091Z,47.31
2023-04-01T20:54:53.620Z,47.55
2023-04-01T20:57:32.890Z,47.65
2023-04-01T21:00:20.382Z,47.60
2023-04-01T21:03:13.689Z,47.64
2023-04-01T21:06:13.796Z,47.58
2023-04-01T21:08:55.910Z,47.59
2023-04-01T21:11:37.992Z,47.75
2023-04-01T21:14:46.009Z,47.85
2023-04-01T21:17:27.038Z,47.93
2023-04-01T21:20:14.702Z,47.83
2023-04-01T21:23:02.495Z,48.20
2023-04-01T21:25:43.951Z,48.16
2023-04-01T21:28:44.170Z,48.22
2023-04-01T21:31:43.516Z,48.22
2023-04-01T21:34:39.016Z,48.37
2023-04-01T21:37:30.574Z,48.83
2023-04-01T21:40:17.422Z,48.91
2023-04-01T21:42:58.489Z,48.93
2023-04-01T21:45:53.044Z,48.86
2023-04-01T21:48:48.157Z,49.01
2023-04-01T21:51:56.424Z,49.16
2023-04-01T21:54:42.339Z,49.17
2023-04-01T21:57:45.001Z,49.21
2023-04-01T22:00:23.507Z,49.46
2023-04-01T22:03:27.809Z,49.46
2023-04-01T22:06:15.062Z,49.74
2023-04-01T22:09:04.250Z,49.65
2023-04-01T22:11:54.580Z,49.82
2023-04-01T22:14:33.793Z,49.88
2023-04-01T22:17:18.331Z,50.07
2023-04-01T22:19:58.449Z,50.07
2023-04-01T22:22:39.663Z,50.12
2023-04-01T22:25:17.742Z,50.31
2023-04-01T22:27:53.789Z,50.34
2023-04-01T22:30:29.647Z,50.56
2023-04-01T22:33:06.291Z,50.57
2023-04-01T22:35:45.759Z,50.75
2023-04-01T22:38:31.056Z,50.81
2023-04-01T22:41:10.167Z,50.88
2023-04-01T22:43:44.300Z,50.89
2023-04-01T22:46:29.011Z,50.99
2023-04-01T22:49:10.919Z,51.05
2023-04-01T22:51:50.348Z,51.09
2023-04-01T22:54:29.664Z,51.23
2023-04-01T22:57:06.056Z,51.12
2023-04-01T22:59:44.807Z,51.18
2023-04-01T23:02:21.194Z,51.18
2023-04-01T23:04:57.409Z,51.27
2023-04-01T23:07:48.002Z,51.31
2023-04-01T23:10:27.320Z,51.23
2023-04-01T23:13:03.888Z,51.46
2023-04-01T23:15:38.650Z,51.64
2023-04-01T23:18:23.604Z,51.76
2023-04-01T23:21:14.936Z,51.85
2023-04-01T23:24:05.567Z,51.71
2023-04-01T23:26:41.925Z,51.83
2023-04-01T23:29:17.689Z,52.00
2023-04-01T23:31:50.073Z,52.15
2023-04-01T23:34:38.122Z,52.33
2023-04-01T23:37:19.198Z,52.25
2023-04-01T23:39:52.844Z,52.22
2023-04-01T23:42:28.232Z,52.21
2023-04-01T23:45:04.430Z,52.19
2023-04-01T23:47:40.568Z,52.23
2023-04-01T23:50:19.579Z,52.37
2023-04-01T23:52:55.119Z,52.44
2023-04-01T23:55:32.128Z,52.31
2023-04-01T23:58:19.733Z,52.23
